Time;durP1;ratioP1;P1;durP2;ratioP2;P2;SDS_P1;SDS_P2;PMS_P1;PMS_P2;Temp;Humidity;BMP_temperature;BMP_pressure;BME280_temperature;BME280_humidity;BME280_pressure;Samples;Min_cycle;Max_cycle;Signal;HPM_P1;HPM_P2
2024/03/19 00:01:09;;;;;;;;;;;12.30;46.90;;;;;;5045457;28;19928;-77
2024/03/19 00:03:35;;;;;;;;;;;12.30;47.70;;;;;;5074450;28;20414;-70
2024/03/19 00:06:01;;;;;;;;;;;12.30;47.80;;;;;;5074205;28;20007;-76
2024/03/19 00:08:27;;;;;;;;;;;12.30;47.90;;;;;;5074465;28;19935;-76
2024/03/19 00:10:53;;;;;;;;;;;12.30;48.00;;;;;;5074004;28;19947;-72
2024/03/19 00:13:19;;;;;;;;;;;12.20;47.90;;;;;;5074216;28;19921;-77
2024/03/19 00:15:45;;;;;;;;;;;12.20;47.90;;;;;;5074612;28;20015;-77
2024/03/19 00:18:11;;;;;;;;;;;12.20;47.70;;;;;;5056378;28;19966;-76
2024/03/19 00:20:37;;;;;;;;;;;12.20;48.00;;;;;;5055499;28;19924;-70
2024/03/19 00:23:03;;;;;;;;;;;12.20;47.60;;;;;;5056030;28;19916;-74
2024/03/19 00:25:30;;;;;;;;;;;12.20;47.60;;;;;;5039180;28;19927;-77
2024/03/19 00:27:55;;;;;;;;;;;12.20;47.60;;;;;;5056593;28;19924;-76
2024/03/19 00:30:21;;;;;;;;;;;12.20;47.40;;;;;;5073578;28;20362;-76
2024/03/19 00:32:47;;;;;;;;;;;12.20;47.50;;;;;;5056642;28;19916;-72
2024/03/19 00:35:13;;;;;;;;;;;12.20;47.50;;;;;;5055803;28;19920;-76
2024/03/19 00:37:42;;;;;;;;;;;12.10;47.40;;;;;;5074236;28;19921;-70
2024/03/19 00:42:53;;;;;;;;;;;12.20;47.40;;;;;;5058796;28;20139;-70
2024/03/19 00:45:19;;;;;;;;;;;12.10;47.10;;;;;;5073769;28;19924;-76
2024/03/19 00:47:44;;;;;;;;;;;12.10;47.10;;;;;;5055876;28;19921;-70
2024/03/19 00:50:10;;;;;;;;;;;12.10;47.00;;;;;;5073386;28;19920;-70
2024/03/19 00:52:36;;;;;;;;;;;12.10;47.20;;;;;;5055887;28;19927;-73
2024/03/19 00:55:04;;;;;;;;;;;12.10;47.50;;;;;;5055550;28;19925;-70
2024/03/19 00:57:31;;;;;;;;;;;12.10;47.60;;;;;;5073589;28;19940;-70
2024/03/19 00:59:56;;;;;;;;;;;12.00;47.40;;;;;;5055679;28;19934;-71
2024/03/19 01:02:22;;;;;;;;;;;12.00;47.70;;;;;;5054975;28;20062;-70
2024/03/19 01:04:48;;;;;;;;;;;12.00;48.00;;;;;;5073460;28;20019;-70
2024/03/19 01:07:15;;;;;;;;;;;12.00;47.80;;;;;;5073433;28;20003;-73
2024/03/19 01:09:41;;;;;;;;;;;12.00;47.80;;;;;;5073663;28;20384;-70
2024/03/19 01:12:08;;;;;;;;;;;12.00;47.70;;;;;;5073044;28;19920;-76
2024/03/19 01:14:34;;;;;;;;;;;12.00;47.60;;;;;;5055377;28;19928;-76
2024/03/19 01:17:00;;;;;;;;;;;12.00;47.60;;;;;;5073273;28;20007;-75
2024/03/19 01:19:26;;;;;;;;;;;12.00;47.80;;;;;;5073209;28;19978;-77
2024/03/19 01:21:52;;;;;;;;;;;11.90;47.70;;;;;;5072564;28;19927;-76
2024/03/19 01:24:18;;;;;;;;;;;11.90;48.00;;;;;;5072833;28;19931;-76
2024/03/19 01:26:43;;;;;;;;;;;11.90;47.50;;;;;;5054960;28;19916;-75
2024/03/19 01:29:10;;;;;;;;;;;11.80;47.20;;;;;;5055158;28;19920;-76
2024/03/19 01:31:35;;;;;;;;;;;11.80;47.30;;;;;;5054479;28;19931;-70
2024/03/19 01:34:01;;;;;;;;;;;11.80;48.10;;;;;;5054972;28;20015;-76
2024/03/19 01:36:27;;;;;;;;;;;11.80;47.20;;;;;;5037479;28;20011;-74
2024/03/19 01:38:53;;;;;;;;;;;11.70;46.90;;;;;;5072796;28;20007;-76
2024/03/19 01:41:19;;;;;;;;;;;11.70;46.90;;;;;;5054089;28;19930;-76
2024/03/19 01:43:46;;;;;;;;;;;11.70;47.00;;;;;;5072674;28;20008;-76
2024/03/19 01:46:31;;;;;;;;;;;11.80;46.80;;;;;;5054914;28;19925;-71
2024/03/19 01:48:58;;;;;;;;;;;11.80;46.90;;;;;;5054593;28;20019;-70
2024/03/19 01:51:25;;;;;;;;;;;11.70;46.80;;;;;;5054031;28;20327;-76
2024/03/19 01:53:53;;;;;;;;;;;11.70;47.00;;;;;;5037846;28;19917;-70
2024/03/19 01:56:20;;;;;;;;;;;11.70;46.90;;;;;;5054615;28;20019;-76
2024/03/19 02:01:31;;;;;;;;;;;11.70;46.90;;;;;;5071745;28;19966;-70
2024/03/19 02:03:57;;;;;;;;;;;11.80;47.10;;;;;;5072273;28;19916;-76
2024/03/19 02:06:23;;;;;;;;;;;11.70;47.10;;;;;;5050804;28;19960;-77
2024/03/19 02:09:08;;;;;;;;;;;11.70;47.20;;;;;;5051242;28;19923;-70
2024/03/19 02:11:35;;;;;;;;;;;11.70;47.10;;;;;;5050238;28;20011;-75
2024/03/19 02:14:04;;;;;;;;;;;11.70;47.10;;;;;;5067596;28;19923;-76
2024/03/19 02:16:30;;;;;;;;;;;11.70;47.10;;;;;;5050825;28;20354;-77
2024/03/19 02:18:58;;;;;;;;;;;11.70;46.70;;;;;;5050874;28;20003;-76
2024/03/19 02:21:25;;;;;;;;;;;11.70;47.00;;;;;;5050391;28;20278;-75
2024/03/19 02:23:59;;;;;;;;;;;11.70;46.60;;;;;;5050635;28;19917;-76
2024/03/19 02:29:10;;;;;;;;;;;11.70;47.10;;;;;;5051977;28;20043;-76
2024/03/19 02:31:36;;;;;;;;;;;11.70;47.20;;;;;;5050180;28;19925;-70
2024/03/19 02:34:02;;;;;;;;;;;11.60;47.10;;;;;;5051789;28;20015;-75
2024/03/19 02:36:28;;;;;;;;;;;11.60;47.20;;;;;;5033746;28;19999;-70
2024/03/19 02:38:54;;;;;;;;;;;11.60;47.20;;;;;;5051815;28;20294;-70
2024/03/19 02:41:20;;;;;;;;;;;11.60;47.30;;;;;;5049865;28;19925;-76
2024/03/19 02:43:46;;;;;;;;;;;11.60;47.20;;;;;;5067110;28;19925;-74
2024/03/19 02:46:11;;;;;;;;;;;11.60;46.80;;;;;;5067174;28;19971;-76
2024/03/19 02:48:37;;;;;;;;;;;11.60;46.50;;;;;;5051655;28;20565;-70
2024/03/19 02:51:03;;;;;;;;;;;11.60;46.60;;;;;;5066944;28;20005;-71
2024/03/19 02:53:30;;;;;;;;;;;11.60;46.80;;;;;;5050326;28;19967;-76
2024/03/19 02:55:56;;;;;;;;;;;11.60;46.60;;;;;;5051787;28;19925;-70
2024/03/19 02:58:22;;;;;;;;;;;11.60;46.70;;;;;;5051543;28;20016;-70
2024/03/19 03:00:49;;;;;;;;;;;11.60;45.90;;;;;;5066260;28;19935;-70
2024/03/19 03:03:15;;;;;;;;;;;11.60;46.00;;;;;;5050083;28;19970;-70
2024/03/19 03:05:44;;;;;;;;;;;11.60;46.20;;;;;;5033277;28;20622;-76
2024/03/19 03:08:09;;;;;;;;;;;11.60;46.20;;;;;;5050189;28;19921;-77
2024/03/19 03:10:35;;;;;;;;;;;11.60;46.20;;;;;;5032927;28;19933;-76
2024/03/19 03:13:01;;;;;;;;;;;11.50;46.50;;;;;;5051563;28;20321;-70
2024/03/19 03:15:28;;;;;;;;;;;11.50;46.70;;;;;;5051464;28;20036;-76
2024/03/19 03:17:55;;;;;;;;;;;11.40;47.90;;;;;;5066998;28;20012;-70
2024/03/19 03:20:21;;;;;;;;;;;11.40;48.30;;;;;;5049677;28;19924;-70
2024/03/19 03:22:48;;;;;;;;;;;11.40;48.50;;;;;;5051417;28;20353;-75
2024/03/19 03:25:15;;;;;;;;;;;11.30;50.20;;;;;;5051409;28;19956;-70
2024/03/19 03:27:42;;;;;;;;;;;11.30;50.40;;;;;;5050129;28;19917;-70
2024/03/19 03:30:10;;;;;;;;;;;11.30;51.10;;;;;;5049591;28;19931;-76
2024/03/19 03:32:37;;;;;;;;;;;11.30;51.50;;;;;;5050048;28;19966;-76
2024/03/19 03:35:03;;;;;;;;;;;11.20;51.60;;;;;;5049801;28;19968;-76
2024/03/19 03:37:30;;;;;;;;;;;11.20;51.60;;;;;;5050137;28;19924;-76
2024/03/19 03:39:56;;;;;;;;;;;11.20;52.20;;;;;;5033308;28;20495;-70
2024/03/19 03:42:23;;;;;;;;;;;11.10;52.30;;;;;;5049442;28;19921;-70
2024/03/19 03:44:49;;;;;;;;;;;11.10;52.70;;;;;;5066504;28;20042;-70
2024/03/19 03:47:15;;;;;;;;;;;11.10;52.50;;;;;;5066555;28;19916;-77
2024/03/19 03:49:41;;;;;;;;;;;11.10;52.00;;;;;;5050910;28;19925;-76
2024/03/19 03:52:07;;;;;;;;;;;11.10;52.70;;;;;;5050506;28;20296;-70
2024/03/19 03:54:33;;;;;;;;;;;11.10;52.80;;;;;;5050716;28;19925;-77
2024/03/19 03:56:59;;;;;;;;;;;11.00;52.50;;;;;;5049781;28;19923;-71
2024/03/19 03:59:27;;;;;;;;;;;11.00;52.10;;;;;;5053096;28;19924;-77
2024/03/19 04:01:53;;;;;;;;;;;10.90;52.60;;;;;;5069665;28;19927;-76
2024/03/19 04:04:20;;;;;;;;;;;10.90;53.30;;;;;;5053115;28;19978;-76
2024/03/19 04:06:48;;;;;;;;;;;10.80;52.00;;;;;;5053499;28;20293;-76
2024/03/19 04:09:15;;;;;;;;;;;10.80;52.10;;;;;;5055103;28;20273;-70
2024/03/19 04:11:41;;;;;;;;;;;10.80;52.80;;;;;;5069198;28;20012;-70
2024/03/19 04:14:07;;;;;;;;;;;10.80;51.20;;;;;;5036192;28;19917;-71
2024/03/19 04:16:33;;;;;;;;;;;10.80;51.00;;;;;;5054191;28;20373;-70
2024/03/19 04:18:59;;;;;;;;;;;10.70;50.70;;;;;;5054378;28;20015;-76
2024/03/19 04:21:25;;;;;;;;;;;10.70;50.60;;;;;;5052490;28;20410;-70
2024/03/19 04:23:51;;;;;;;;;;;10.60;50.60;;;;;;5053051;28;19916;-70
2024/03/19 04:26:17;;;;;;;;;;;10.60;50.60;;;;;;5069528;28;19925;-70
2024/03/19 04:28:43;;;;;;;;;;;10.50;50.60;;;;;;5069585;28;20290;-77
2024/03/19 04:31:09;;;;;;;;;;;10.50;50.50;;;;;;5053885;28;19925;-76
2024/03/19 04:33:35;;;;;;;;;;;10.50;50.70;;;;;;5069514;28;19925;-76
2024/03/19 04:36:01;;;;;;;;;;;10.40;49.80;;;;;;5054289;28;19963;-76
2024/03/19 04:38:26;;;;;;;;;;;10.30;49.00;;;;;;5052548;28;20316;-70
2024/03/19 04:40:52;;;;;;;;;;;10.30;48.90;;;;;;5053581;28;19928;-70
2024/03/19 04:43:18;;;;;;;;;;;10.30;49.00;;;;;;5053556;28;19927;-70
2024/03/19 04:45:44;;;;;;;;;;;10.30;48.90;;;;;;5054308;28;19978;-70
2024/03/19 04:48:10;;;;;;;;;;;10.20;48.10;;;;;;5069286;28;19917;-70
2024/03/19 04:50:36;;;;;;;;;;;10.20;47.70;;;;;;5051815;28;20252;-70
2024/03/19 04:53:02;;;;;;;;;;;10.20;47.50;;;;;;5053871;28;20377;-69
2024/03/19 04:55:28;;;;;;;;;;;10.20;47.30;;;;;;5068437;28;20052;-77
2024/03/19 04:57:54;;;;;;;;;;;10.10;47.30;;;;;;5053899;28;20542;-76
2024/03/19 05:00:21;;;;;;;;;;;10.10;48.10;;;;;;5051492;28;20065;-76
2024/03/19 05:02:47;;;;;;;;;;;10.10;48.70;;;;;;5068928;28;19970;-76
2024/03/19 05:05:13;;;;;;;;;;;10.10;48.20;;;;;;5070514;28;19925;-70
2024/03/19 05:07:58;;;;;;;;;;;10.00;48.00;;;;;;5055694;28;19916;-70
2024/03/19 05:10:25;;;;;;;;;;;10.00;48.00;;;;;;5071740;28;19964;-70
2024/03/19 05:12:51;;;;;;;;;;;10.00;48.30;;;;;;5073269;28;19924;-76
2024/03/19 05:15:17;;;;;;;;;;;10.00;48.30;;;;;;5073070;28;19960;-76
2024/03/19 05:17:42;;;;;;;;;;;9.90;48.80;;;;;;5055603;28;19926;-71
2024/03/19 05:20:09;;;;;;;;;;;9.90;48.80;;;;;;5037833;28;20091;-76
2024/03/19 05:22:35;;;;;;;;;;;9.80;48.20;;;;;;5073164;28;19924;-76
2024/03/19 05:25:01;;;;;;;;;;;9.80;48.60;;;;;;5073055;28;20344;-69
2024/03/19 05:27:27;;;;;;;;;;;9.80;48.90;;;;;;5072961;28;20421;-75
2024/03/19 05:29:52;;;;;;;;;;;9.80;49.10;;;;;;5038411;28;20351;-70
2024/03/19 05:32:19;;;;;;;;;;;9.80;49.00;;;;;;5054283;28;19924;-70
2024/03/19 05:34:45;;;;;;;;;;;9.70;49.30;;;;;;5072856;28;19974;-70
2024/03/19 05:37:11;;;;;;;;;;;9.70;49.30;;;;;;5054983;28;19916;-70
2024/03/19 05:39:37;;;;;;;;;;;9.70;49.20;;;;;;5072633;28;19982;-70
2024/03/19 05:42:03;;;;;;;;;;;9.70;48.80;;;;;;5072368;28;20007;-76
2024/03/19 05:44:29;;;;;;;;;;;9.60;48.50;;;;;;5037630;28;20384;-77
2024/03/19 05:46:55;;;;;;;;;;;9.60;48.50;;;;;;5072441;28;19923;-70
2024/03/19 05:49:21;;;;;;;;;;;9.60;48.80;;;;;;5054477;28;19925;-70
2024/03/19 05:51:47;;;;;;;;;;;9.70;48.40;;;;;;5071973;28;20136;-76
2024/03/19 05:54:13;;;;;;;;;;;9.60;48.60;;;;;;5054527;28;20400;-70
2024/03/19 05:56:39;;;;;;;;;;;9.60;48.50;;;;;;5072377;28;20019;-74
2024/03/19 05:59:05;;;;;;;;;;;9.60;48.40;;;;;;5072490;28;20019;-76
2024/03/19 06:01:30;;;;;;;;;;;9.60;48.40;;;;;;5072010;28;20424;-70
2024/03/19 06:03:56;;;;;;;;;;;9.60;48.50;;;;;;5054308;28;19966;-75
2024/03/19 06:06:23;;;;;;;;;;;9.60;48.70;;;;;;5050905;28;19921;-70
2024/03/19 06:08:49;;;;;;;;;;;9.60;48.60;;;;;;5067637;28;20436;-77
2024/03/19 06:11:15;;;;;;;;;;;9.60;48.50;;;;;;5051766;28;19925;-77
2024/03/19 06:13:41;;;;;;;;;;;9.60;48.60;;;;;;5051978;28;19923;-76
2024/03/19 06:16:07;;;;;;;;;;;9.60;49.00;;;;;;5052086;28;20331;-71
2024/03/19 06:18:33;;;;;;;;;;;9.60;49.10;;;;;;5052337;28;19920;-76
2024/03/19 06:20:59;;;;;;;;;;;9.50;48.70;;;;;;5049904;28;19929;-77
2024/03/19 06:23:25;;;;;;;;;;;9.60;49.30;;;;;;5050336;28;19917;-70
2024/03/19 06:25:52;;;;;;;;;;;9.60;49.20;;;;;;5052082;28;20016;-70
2024/03/19 06:28:18;;;;;;;;;;;9.50;49.10;;;;;;5051897;28;19924;-76
2024/03/19 06:30:44;;;;;;;;;;;9.50;49.20;;;;;;5051409;28;19933;-77
2024/03/19 06:33:09;;;;;;;;;;;9.50;49.40;;;;;;5051967;28;20397;-70
2024/03/19 06:35:35;;;;;;;;;;;9.60;49.50;;;;;;5051828;28;20292;-76
2024/03/19 06:38:05;;;;;;;;;;;9.50;49.40;;;;;;5050727;28;20390;-72
2024/03/19 06:40:31;;;;;;;;;;;9.50;48.40;;;;;;5051152;28;19931;-76
2024/03/19 06:42:58;;;;;;;;;;;9.50;48.90;;;;;;5033725;28;19917;-75
2024/03/19 06:45:24;;;;;;;;;;;9.60;49.20;;;;;;5051699;28;20163;-77
2024/03/19 06:47:50;;;;;;;;;;;9.60;49.50;;;;;;5050532;28;19924;-75
2024/03/19 06:50:19;;;;;;;;;;;9.60;49.60;;;;;;5051336;28;19929;-76
2024/03/19 06:52:45;;;;;;;;;;;9.60;49.00;;;;;;5066808;28;19916;-76
2024/03/19 06:55:11;;;;;;;;;;;9.70;49.70;;;;;;5066754;28;19925;-70
2024/03/19 06:57:39;;;;;;;;;;;9.60;49.80;;;;;;5050448;28;19968;-70
2024/03/19 07:00:13;;;;;;;;;;;9.60;49.20;;;;;;5066114;28;19928;-70
2024/03/19 07:02:59;;;;;;;;;;;9.70;49.30;;;;;;5065970;28;19917;-77
2024/03/19 07:05:28;;;;;;;;;;;9.70;49.30;;;;;;5054638;28;19932;-70
2024/03/19 07:07:54;;;;;;;;;;;9.70;49.60;;;;;;5071784;28;19916;-76
2024/03/19 07:10:21;;;;;;;;;;;9.70;49.40;;;;;;5070830;28;19928;-76
2024/03/19 07:12:47;;;;;;;;;;;9.70;49.10;;;;;;5053674;28;19916;-75
2024/03/19 07:17:57;;;;;;;;;;;9.70;49.50;;;;;;5056643;28;19926;-76
2024/03/19 07:20:24;;;;;;;;;;;9.70;49.60;;;;;;5052759;28;20007;-76
2024/03/19 07:22:50;;;;;;;;;;;9.70;49.80;;;;;;5071256;28;19925;-69
2024/03/19 07:25:17;;;;;;;;;;;9.70;49.50;;;;;;5071214;28;19924;-70
2024/03/19 07:27:43;;;;;;;;;;;9.70;49.30;;;;;;5071283;28;19925;-75
2024/03/19 07:30:11;;;;;;;;;;;9.70;49.00;;;;;;5035929;28;20288;-70
2024/03/19 07:32:38;;;;;;;;;;;9.70;48.90;;;;;;5053360;28;19978;-70
2024/03/19 07:35:05;;;;;;;;;;;9.70;48.30;;;;;;5056709;28;19920;-76
2024/03/19 07:37:50;;;;;;;;;;;9.70;48.20;;;;;;5057543;28;19920;-70
2024/03/19 07:40:20;;;;;;;;;;;9.70;48.30;;;;;;5039620;28;19927;-70
2024/03/19 07:42:49;;;;;;;;;;;9.70;48.70;;;;;;5041330;28;19955;-77
2024/03/19 07:45:16;;;;;;;;;;;9.70;48.80;;;;;;5056944;28;19965;-70
2024/03/19 07:47:41;;;;;;;;;;;9.70;48.80;;;;;;5057312;28;19925;-74
2024/03/19 07:50:10;;;;;;;;;;;9.70;48.50;;;;;;5056213;28;19927;-77
2024/03/19 07:52:36;;;;;;;;;;;9.70;47.80;;;;;;5074731;28;19975;-76
2024/03/19 07:55:03;;;;;;;;;;;9.70;48.50;;;;;;5056621;28;19920;-70
2024/03/19 07:57:30;;;;;;;;;;;9.80;48.30;;;;;;5056817;28;19924;-76
2024/03/19 07:59:56;;;;;;;;;;;9.80;48.40;;;;;;5056817;28;19924;-76
2024/03/19 08:02:23;;;;;;;;;;;9.80;47.60;;;;;;5056256;28;19924;-70
2024/03/19 08:04:52;;;;;;;;;;;9.90;47.40;;;;;;5074561;28;20422;-77
2024/03/19 08:07:18;;;;;;;;;;;9.90;46.80;;;;;;5074683;28;19920;-77
2024/03/19 08:09:45;;;;;;;;;;;9.80;46.90;;;;;;5056513;28;19924;-70
2024/03/19 08:12:11;;;;;;;;;;;9.80;46.60;;;;;;5056019;28;20049;-76
2024/03/19 08:14:37;;;;;;;;;;;9.80;46.40;;;;;;5056366;28;20314;-70
2024/03/19 08:17:03;;;;;;;;;;;9.80;45.90;;;;;;5056664;28;19916;-74
2024/03/19 08:19:29;;;;;;;;;;;9.90;46.00;;;;;;5074192;28;20174;-77
2024/03/19 08:21:55;;;;;;;;;;;9.90;46.10;;;;;;5055872;28;19924;-70
2024/03/19 08:24:22;;;;;;;;;;;9.90;45.60;;;;;;5039450;28;19924;-70
2024/03/19 08:26:48;;;;;;;;;;;9.90;46.00;;;;;;5074133;28;19924;-76
2024/03/19 08:29:14;;;;;;;;;;;9.90;45.40;;;;;;5056181;28;20236;-77
2024/03/19 08:31:40;;;;;;;;;;;9.80;45.60;;;;;;5055648;28;19928;-70
2024/03/19 08:34:06;;;;;;;;;;;9.80;45.70;;;;;;5056001;28;19969;-72
2024/03/19 08:36:32;;;;;;;;;;;9.70;46.40;;;;;;5056010;28;19916;-75
2024/03/19 08:38:59;;;;;;;;;;;9.70;46.80;;;;;;5056016;28;19920;-70
2024/03/19 08:41:25;;;;;;;;;;;9.60;46.50;;;;;;5055444;28;19928;-70
2024/03/19 08:43:51;;;;;;;;;;;9.60;47.20;;;;;;5038769;28;20615;-70
2024/03/19 08:46:19;;;;;;;;;;;9.60;47.10;;;;;;5039185;28;20377;-73
2024/03/19 08:48:46;;;;;;;;;;;9.50;46.80;;;;;;5056096;28;20267;-70
2024/03/19 08:51:13;;;;;;;;;;;9.50;47.10;;;;;;5038783;28;19960;-70
2024/03/19 08:53:39;;;;;;;;;;;9.50;47.70;;;;;;5055704;28;20320;-77
2024/03/19 08:56:05;;;;;;;;;;;9.60;47.60;;;;;;5073993;28;20019;-76
2024/03/19 08:58:31;;;;;;;;;;;9.70;47.90;;;;;;5055607;28;19964;-75
2024/03/19 09:00:57;;;;;;;;;;;9.70;47.40;;;;;;5055118;28;19928;-77
2024/03/19 09:03:23;;;;;;;;;;;9.80;48.40;;;;;;5073343;28;19950;-70
2024/03/19 09:05:56;;;;;;;;;;;9.80;48.60;;;;;;5055193;28;20305;-76
2024/03/19 09:08:23;;;;;;;;;;;9.90;48.40;;;;;;5055430;28;19927;-77
2024/03/19 09:11:07;;;;;;;;;;;9.90;47.60;;;;;;5054830;28;19928;-70
2024/03/19 09:13:33;;;;;;;;;;;9.90;47.30;;;;;;5055043;28;19921;-77
2024/03/19 09:15:59;;;;;;;;;;;10.00;47.40;;;;;;5055483;28;19989;-77
2024/03/19 09:18:25;;;;;;;;;;;10.10;47.40;;;;;;5055190;28;19931;-70
2024/03/19 09:20:51;;;;;;;;;;;10.20;46.60;;;;;;5038033;28;19925;-70
2024/03/19 09:23:17;;;;;;;;;;;10.30;46.20;;;;;;5055155;28;20408;-71
2024/03/19 09:25:43;;;;;;;;;;;10.30;45.40;;;;;;5055078;28;20320;-70
2024/03/19 09:28:09;;;;;;;;;;;10.40;45.00;;;;;;5055165;28;20412;-75
2024/03/19 09:30:35;;;;;;;;;;;10.50;44.70;;;;;;5072475;28;19931;-70
2024/03/19 09:33:02;;;;;;;;;;;10.60;44.60;;;;;;5055224;28;19923;-70
2024/03/19 09:35:28;;;;;;;;;;;10.70;43.80;;;;;;5072425;28;20007;-70
2024/03/19 09:37:54;;;;;;;;;;;10.70;43.20;;;;;;5055365;28;20304;-75
2024/03/19 09:40:20;;;;;;;;;;;10.70;43.60;;;;;;5054254;28;19978;-76
2024/03/19 09:42:46;;;;;;;;;;;10.80;43.10;;;;;;5038041;28;19982;-72
2024/03/19 09:45:31;;;;;;;;;;;10.80;42.50;;;;;;5037915;28;19924;-70
2024/03/19 09:47:57;;;;;;;;;;;10.70;41.20;;;;;;5072513;28;19958;-70
2024/03/19 09:50:25;;;;;;;;;;;10.70;42.20;;;;;;5071892;28;19936;-76
2024/03/19 09:52:53;;;;;;;;;;;10.80;41.70;;;;;;5054868;28;19916;-70
2024/03/19 09:55:19;;;;;;;;;;;10.90;41.60;;;;;;5054286;28;20285;-76
2024/03/19 09:57:46;;;;;;;;;;;11.00;41.30;;;;;;5054024;28;20389;-76
2024/03/19 10:00:30;;;;;;;;;;;11.00;41.60;;;;;;5071768;28;19923;-77
2024/03/19 10:02:56;;;;;;;;;;;11.10;41.20;;;;;;5054363;28;19964;-70
2024/03/19 10:05:23;;;;;;;;;;;11.10;38.90;;;;;;5053972;28;19928;-76
2024/03/19 10:07:52;;;;;;;;;;;11.10;38.60;;;;;;5072245;28;19967;-77
2024/03/19 10:10:18;;;;;;;;;;;11.00;37.40;;;;;;5037106;28;19925;-75
2024/03/19 10:12:44;;;;;;;;;;;11.00;37.10;;;;;;5054172;28;19926;-70
2024/03/19 10:15:30;;;;;;;;;;;11.10;38.20;;;;;;5054019;28;20168;-76
2024/03/19 10:17:59;;;;;;;;;;;11.10;38.50;;;;;;5054399;28;19916;-70
2024/03/19 10:20:26;;;;;;;;;;;11.20;38.30;;;;;;5053406;28;19928;-76
2024/03/19 10:22:52;;;;;;;;;;;11.30;38.70;;;;;;5054028;28;20214;-70
2024/03/19 10:25:18;;;;;;;;;;;11.20;38.60;;;;;;5071857;28;20344;-70
2024/03/19 10:27:48;;;;;;;;;;;11.20;38.30;;;;;;5072071;28;20605;-70
2024/03/19 10:30:16;;;;;;;;;;;11.10;38.00;;;;;;5071469;28;19959;-77
2024/03/19 10:32:43;;;;;;;;;;;11.20;38.40;;;;;;5037534;28;19978;-76
2024/03/19 10:35:19;;;;;;;;;;;11.20;39.00;;;;;;5053755;28;20407;-77
2024/03/19 10:37:47;;;;;;;;;;;11.20;39.40;;;;;;5054150;28;19921;-76
2024/03/19 10:40:13;;;;;;;;;;;11.10;39.80;;;;;;5053212;28;19932;-70
2024/03/19 10:42:41;;;;;;;;;;;11.10;39.70;;;;;;5053738;28;20015;-76
2024/03/19 10:45:30;;;;;;;;;;;11.10;39.50;;;;;;5053969;28;19970;-76
2024/03/19 10:47:57;;;;;;;;;;;11.20;39.50;;;;;;5054475;28;19990;-77
2024/03/19 10:50:23;;;;;;;;;;;11.30;39.50;;;;;;5036395;28;19932;-77
2024/03/19 10:53:01;;;;;;;;;;;11.60;38.40;;;;;;5037223;28;19935;-76
2024/03/19 10:55:48;;;;;;;;;;;11.80;38.60;;;;;;5053525;28;20420;-71
2024/03/19 10:58:15;;;;;;;;;;;12.10;38.00;;;;;;5071620;28;19924;-70
2024/03/19 11:00:42;;;;;;;;;;;12.50;38.00;;;;;;5071070;28;19929;-70
2024/03/19 11:03:15;;;;;;;;;;;13.20;37.20;;;;;;5053825;28;19916;-76
2024/03/19 11:06:05;;;;;;;;;;;13.80;35.80;;;;;;5053254;28;19925;-70
2024/03/19 11:08:36;;;;;;;;;;;14.10;35.30;;;;;;5074286;28;19927;-75
2024/03/19 11:11:20;;;;;;;;;;;14.40;32.50;;;;;;5075340;28;19931;-76
2024/03/19 11:14:05;;;;;;;;;;;14.80;32.50;;;;;;5057504;28;19916;-76
2024/03/19 11:16:50;;;;;;;;;;;15.40;29.90;;;;;;5075500;28;19924;-77
2024/03/19 11:19:36;;;;;;;;;;;15.90;29.10;;;;;;5057414;28;19928;-70
2024/03/19 11:22:02;;;;;;;;;;;16.10;29.60;;;;;;5057087;28;19920;-76
2024/03/19 11:24:49;;;;;;;;;;;16.20;28.80;;;;;;5075026;28;19924;-76
2024/03/19 11:27:17;;;;;;;;;;;16.70;28.30;;;;;;5040784;28;19963;-76
2024/03/19 11:29:45;;;;;;;;;;;17.00;28.20;;;;;;5057528;28;19924;-76
2024/03/19 11:32:40;;;;;;;;;;;17.20;27.60;;;;;;5056888;28;19920;-70
2024/03/19 11:35:25;;;;;;;;;;;17.00;25.40;;;;;;5075217;28;19971;-74
2024/03/19 11:37:51;;;;;;;;;;;16.70;27.80;;;;;;5075161;28;19923;-76
2024/03/19 11:40:18;;;;;;;;;;;16.60;28.10;;;;;;5074626;28;19960;-77
2024/03/19 11:42:46;;;;;;;;;;;16.50;28.40;;;;;;5057129;28;19963;-71
2024/03/19 11:45:15;;;;;;;;;;;16.30;29.00;;;;;;5040311;28;19925;-70
2024/03/19 11:47:42;;;;;;;;;;;16.20;29.60;;;;;;5040485;28;19921;-70
2024/03/19 11:50:27;;;;;;;;;;;16.10;29.00;;;;;;5056540;28;20015;-75
2024/03/19 11:52:57;;;;;;;;;;;15.90;28.80;;;;;;5056942;28;19923;-75
2024/03/19 11:55:24;;;;;;;;;;;15.80;28.80;;;;;;5056693;28;19924;-76
2024/03/19 11:57:50;;;;;;;;;;;15.70;28.70;;;;;;5057072;28;19916;-76
2024/03/19 12:00:16;;;;;;;;;;;15.70;29.70;;;;;;5039188;28;20377;-76
2024/03/19 12:02:42;;;;;;;;;;;15.90;29.10;;;;;;5074745;28;20002;-76
2024/03/19 12:05:27;;;;;;;;;;;15.90;29.80;;;;;;5056253;28;19931;-70
2024/03/19 12:07:53;;;;;;;;;;;15.90;29.90;;;;;;5056810;28;19916;-70
2024/03/19 12:10:22;;;;;;;;;;;16.00;30.00;;;;;;5055875;28;20346;-76
2024/03/19 12:12:50;;;;;;;;;;;16.20;29.50;;;;;;5056697;28;19917;-76
2024/03/19 12:15:18;;;;;;;;;;;16.50;29.40;;;;;;5056243;28;19975;-70
2024/03/19 12:17:46;;;;;;;;;;;16.70;28.70;;;;;;5074557;28;19924;-76
2024/03/19 12:20:12;;;;;;;;;;;16.80;27.80;;;;;;5073081;28;19925;-70
2024/03/19 12:22:39;;;;;;;;;;;16.90;27.80;;;;;;5056418;28;19923;-75
2024/03/19 12:25:25;;;;;;;;;;;17.10;27.10;;;;;;5056185;28;19924;-70
2024/03/19 12:27:51;;;;;;;;;;;17.60;27.50;;;;;;5056492;28;20008;-71
2024/03/19 12:30:19;;;;;;;;;;;18.00;27.00;;;;;;5055737;28;20326;-70
2024/03/19 12:35:31;;;;;;;;;;;19.10;24.70;;;;;;5074153;28;19928;-76
2024/03/19 12:37:57;;;;;;;;;;;19.10;25.30;;;;;;5056277;28;19916;-70
2024/03/19 12:40:24;;;;;;;;;;;19.00;25.30;;;;;;5055148;28;19932;-77
2024/03/19 12:42:51;;;;;;;;;;;18.90;25.60;;;;;;5056018;28;19932;-76
2024/03/19 12:45:19;;;;;;;;;;;18.90;25.50;;;;;;5073795;28;20323;-76
2024/03/19 12:47:46;;;;;;;;;;;19.00;24.50;;;;;;5039474;28;19931;-77
2024/03/19 12:50:13;;;;;;;;;;;19.00;25.20;;;;;;5055205;28;19962;-70
2024/03/19 12:52:40;;;;;;;;;;;18.90;25.60;;;;;;5073837;28;19931;-70
2024/03/19 12:55:07;;;;;;;;;;;18.90;26.00;;;;;;5038888;28;19960;-70
2024/03/19 12:57:34;;;;;;;;;;;18.70;26.10;;;;;;5055741;28;19927;-70
2024/03/19 13:00:03;;;;;;;;;;;18.60;26.10;;;;;;5055882;28;19946;-77
2024/03/19 13:02:29;;;;;;;;;;;18.50;25.80;;;;;;5055447;28;20332;-76
2024/03/19 13:04:55;;;;;;;;;;;18.40;26.30;;;;;;5073484;28;19920;-70
2024/03/19 13:07:21;;;;;;;;;;;18.40;26.50;;;;;;5055267;28;20392;-76
2024/03/19 13:09:47;;;;;;;;;;;18.50;25.90;;;;;;5055306;28;19967;-75
2024/03/19 13:12:13;;;;;;;;;;;18.60;25.60;;;;;;5054964;28;20007;-76
2024/03/19 13:14:39;;;;;;;;;;;20.00;24.50;;;;;;5073339;28;20365;-70
2024/03/19 13:17:05;;;;;;;;;;;22.20;22.80;;;;;;5038882;28;19917;-76
2024/03/19 13:19:31;;;;;;;;;;;22.70;21.60;;;;;;5055134;28;20015;-74
2024/03/19 13:21:57;;;;;;;;;;;23.30;20.90;;;;;;5054633;28;20012;-76
2024/03/19 13:24:23;;;;;;;;;;;25.30;19.30;;;;;;5072776;28;19925;-76
2024/03/19 13:26:50;;;;;;;;;;;27.20;16.30;;;;;;5055135;28;20297;-70
2024/03/19 13:29:16;;;;;;;;;;;29.60;14.70;;;;;;5055196;28;20387;-77
2024/03/19 13:31:42;;;;;;;;;;;30.90;13.10;;;;;;5053671;28;20071;-77
2024/03/19 13:34:08;;;;;;;;;;;31.50;12.80;;;;;;5038196;28;20373;-71
2024/03/19 13:36:34;;;;;;;;;;;32.30;12.10;;;;;;5054903;28;19940;-71
2024/03/19 13:38:59;;;;;;;;;;;33.10;12.10;;;;;;5055098;28;20027;-76
2024/03/19 13:41:26;;;;;;;;;;;33.10;11.50;;;;;;5072037;28;19920;-70
2024/03/19 13:43:52;;;;;;;;;;;32.10;11.20;;;;;;5054856;28;20102;-76
2024/03/19 13:46:18;;;;;;;;;;;30.70;11.70;;;;;;5072844;28;19938;-70
2024/03/19 13:48:44;;;;;;;;;;;30.40;12.40;;;;;;5037964;28;20125;-70
2024/03/19 13:51:10;;;;;;;;;;;31.20;12.60;;;;;;5054179;28;19924;-76
2024/03/19 13:53:36;;;;;;;;;;;32.50;11.70;;;;;;5054779;28;19920;-76
2024/03/19 13:56:03;;;;;;;;;;;33.40;10.20;;;;;;5054321;28;20356;-75
2024/03/19 13:58:29;;;;;;;;;;;34.30;10.00;;;;;;5072608;28;19954;-70
2024/03/19 14:01:00;;;;;;;;;;;35.20;10.30;;;;;;5037156;28;20323;-71
2024/03/19 14:03:27;;;;;;;;;;;35.90;8.60;;;;;;5072071;28;19917;-71
2024/03/19 14:05:53;;;;;;;;;;;36.60;7.70;;;;;;5054093;28;19962;-76
2024/03/19 14:08:19;;;;;;;;;;;36.80;8.50;;;;;;5072168;28;20300;-76
2024/03/19 14:10:56;;;;;;;;;;;37.40;8.20;;;;;;5036837;28;19931;-76
2024/03/19 14:13:22;;;;;;;;;;;37.90;7.40;;;;;;5055249;28;19921;-71
2024/03/19 14:15:48;;;;;;;;;;;38.40;7.60;;;;;;5072444;28;19920;-71
2024/03/19 14:18:15;;;;;;;;;;;38.60;7.20;;;;;;5054097;28;19966;-76
2024/03/19 14:20:41;;;;;;;;;;;37.70;7.40;;;;;;5053632;28;19928;-71
2024/03/19 14:23:07;;;;;;;;;;;34.90;8.80;;;;;;5072420;28;19916;-76
2024/03/19 14:25:51;;;;;;;;;;;32.80;10.50;;;;;;5036993;28;20403;-71
2024/03/19 14:28:19;;;;;;;;;;;31.10;11.50;;;;;;5071893;28;19921;-76
2024/03/19 14:30:49;;;;;;;;;;;30.00;12.10;;;;;;5053421;28;19924;-70
2024/03/19 14:33:14;;;;;;;;;;;28.50;12.80;;;;;;5071835;28;19916;-76
2024/03/19 14:35:40;;;;;;;;;;;27.50;13.90;;;;;;5053757;28;19950;-71
2024/03/19 14:38:07;;;;;;;;;;;27.40;13.80;;;;;;5054096;28;19931;-71